Matthew James — WDD4491 — position and weather

sailwx.info

Track history (hours):
 
Tides and Currents Weather Stations Pressure Air Temp Water Temp Dewpoint Dewpoint Depression Visibility Wind Speed Wind Dir Waves Ship Positions

Matthew James

Owner: LeBeouf Bros. Towing, LLC, Houma, LA. More information available from US FCC via Universal Licensing System and Coast Guard Vessel Documentation Center.

Last reported at 2017-Sep-26 16:23 UTC. Time now 2017-Sep-26 16:38 UTC.
Position N 29°42' W 095°03'.

Length 24 m; draft 3 m.

Type: Tug. MMSI: 367145380.

Date/timePositionNaut miles runAvg speedWind from/ knotsBaromVisibWave heightAir tempDewpointWater temp
2017-Sep-26 16:23N 29°42' W 095°03'0 0.0
2017-Sep-26 15:40N 29°42' W 095°03'0 0.0
2017-Sep-26 15:27N 29°42' W 095°03'0 0.0
2017-Sep-26 14:57N 29°42' W 095°03'0 0.0
2017-Sep-26 14:22N 29°42' W 095°03'0 0.0
2017-Sep-26 14:01N 29°42' W 095°03'0 0.0
2017-Sep-26 13:24N 29°42' W 095°03'0 0.0
2017-Sep-26 12:58N 29°42' W 095°03'0 0.0
2017-Sep-26 12:29N 29°42' W 095°03'0 0.0
2017-Sep-26 09:49N 29°42' W 095°03'0 0.0
2017-Sep-26 09:27N 29°42' W 095°03'0 0.0
2017-Sep-26 08:49N 29°42' W 095°03'0 0.0
2017-Sep-26 08:29N 29°42' W 095°03'0 0.0
2017-Sep-26 07:52N 29°42' W 095°03'0 0.0
2017-Sep-26 07:31N 29°42' W 095°03'0 0.0
2017-Sep-26 07:00N 29°42' W 095°03'0 0.0
2017-Sep-26 06:31N 29°42' W 095°03'0 0.0
2017-Sep-26 05:57N 29°42' W 095°03'0 0.0
2017-Sep-26 05:28N 29°42' W 095°03'0 0.0
2017-Sep-26 05:00N 29°42' W 095°03'0 0.0
2017-Sep-26 04:28N 29°42' W 095°03'0 0.0
2017-Sep-26 04:00N 29°42' W 095°03'0 0.0
2017-Sep-26 03:17N 29°42' W 095°03'0 0.0
2017-Sep-26 03:00N 29°42' W 095°03'0 0.0
2017-Sep-26 02:29N 29°42' W 095°03'0 0.0
2017-Sep-26 01:26N 29°42' W 095°03'0 0.0
2017-Sep-26 00:45N 29°42' W 095°03'0 0.0
2017-Sep-26 00:30N 29°42' W 095°03'0 0.0
2017-Sep-25 22:43N 29°42' W 095°03'0 0.0
2017-Sep-25 22:28N 29°42' W 095°03'0 0.0
2017-Sep-25 20:43N 29°42' W 095°03'0 0.0
2017-Sep-25 18:12N 29°42' W 095°03'0 0.1
2017-Sep-25 17:58N 29°42' W 095°03'1 3.0
2017-Sep-25 17:30N 29°43' W 095°01'3 6.2
2017-Sep-25 17:01N 29°45' W 095°04'4 5.4
2017-Sep-25 16:15N 29°44' W 095°09'3 0.5
2017-Sep-25 09:32N 29°44' W 095°12'0 0.0
2017-Sep-25 09:27N 29°44' W 095°12'0 0.0
2017-Sep-25 09:00N 29°44' W 095°12'0 0.0
2017-Sep-25 08:29N 29°44' W 095°12'0 0.0
2017-Sep-24 17:39N 29°44' W 095°12'2 5.3
2017-Sep-24 17:13N 29°44' W 095°09'3 6.1
2017-Sep-24 16:48N 29°45' W 095°06'2 5.0
2017-Sep-24 16:19N 29°45' W 095°04'2 6.5
2017-Sep-24 16:00N 29°44' W 095°02'2 3.0
2017-Sep-24 15:30N 29°42' W 095°02'1 1.2
2017-Sep-24 15:00N 29°42' W 095°03'0 0.2
2017-Sep-24 14:31N 29°42' W 095°03'0 0.0
2017-Sep-24 13:59N 29°42' W 095°03'0 0.0
2017-Sep-24 13:30N 29°42' W 095°03'0 0.0
2017-Sep-24 12:58N 29°42' W 095°03'0 0.0
2017-Sep-24 12:18N 29°42' W 095°03'0 0.0
2017-Sep-24 11:06N 29°42' W 095°03'0 0.0
2017-Sep-24 10:51N 29°42' W 095°03'0 0.0
2017-Sep-24 10:20N 29°42' W 095°03'0 0.0
2017-Sep-24 09:58N 29°42' W 095°03'0 0.0
2017-Sep-24 09:28N 29°42' W 095°03'0 0.0
2017-Sep-24 08:59N 29°42' W 095°03'0 0.0
2017-Sep-24 08:28N 29°42' W 095°03'0 0.0
2017-Sep-24 06:07N 29°42' W 095°03'0 0.0
2017-Sep-24 05:57N 29°42' W 095°03'0 0.0
2017-Sep-24 05:30N 29°42' W 095°03'0 0.0
2017-Sep-24 05:00N 29°42' W 095°03'0 0.0
2017-Sep-24 04:28N 29°42' W 095°03'0 0.0
2017-Sep-24 03:56N 29°42' W 095°03'0 0.0
2017-Sep-24 03:25N 29°42' W 095°03'0 0.0
2017-Sep-24 03:00N 29°42' W 095°03'0 0.0
2017-Sep-24 02:21N 29°42' W 095°03'0 0.0
2017-Sep-24 01:50N 29°42' W 095°03'0 0.0
2017-Sep-24 01:28N 29°42' W 095°03'0 0.0
2017-Sep-24 00:55N 29°42' W 095°03'0 0.0
2017-Sep-24 00:24N 29°42' W 095°03'0 0.0
2017-Sep-23 23:06N 29°42' W 095°03'0 0.0
2017-Sep-23 23:00N 29°42' W 095°03'0 0.0
2017-Sep-23 22:28N 29°42' W 095°03'0 0.0
2017-Sep-23 22:00N 29°42' W 095°03'0 0.0
2017-Sep-23 21:30N 29°42' W 095°03'0 0.0
2017-Sep-23 20:59N 29°42' W 095°03'0 0.0
2017-Sep-23 19:37N 29°42' W 095°03'0 0.0
2017-Sep-22 02:00N 29°42' W 095°03'0 0.0
2017-Sep-22 01:27N 29°42' W 095°03'0 0.0
2017-Sep-22 01:00N 29°42' W 095°03'0 0.0
2017-Sep-22 00:31N 29°42' W 095°03'0 0.0
2017-Sep-21 23:58N 29°42' W 095°03'0 0.0
2017-Sep-21 23:30N 29°42' W 095°03'0 0.0
2017-Sep-21 23:01N 29°42' W 095°03'0 0.0
2017-Sep-21 22:28N 29°42' W 095°03'0 0.0
2017-Sep-21 22:00N 29°42' W 095°03'0 0.0
2017-Sep-21 21:31N 29°42' W 095°03'0 0.1
2017-Sep-21 21:01N 29°42' W 095°03'0 0.0
2017-Sep-21 20:31N 29°42' W 095°03'0 0.0
2017-Sep-21 20:00N 29°42' W 095°03'0 0.1
2017-Sep-21 19:31N 29°42' W 095°03'0 0.2
2017-Sep-21 18:58N 29°42' W 095°03'0 0.0
2017-Sep-21 18:25N 29°42' W 095°03'0 0.0
2017-Sep-21 17:56N 29°42' W 095°03'0 0.0
2017-Sep-21 17:18N 29°42' W 095°03'0 0.0
2017-Sep-21 16:57N 29°42' W 095°03'0 0.0
2017-Sep-21 16:30N 29°42' W 095°03'0 0.0
2017-Sep-21 16:00N 29°42' W 095°03'0 0.0
2017-Sep-21 15:23N 29°42' W 095°03'0 0.0
2017-Sep-21 14:58N 29°42' W 095°03'0 0.0
2017-Sep-21 14:12N 29°42' W 095°03'0 0.0
2017-Sep-21 13:49N 29°42' W 095°03'0 0.0
2017-Sep-21 11:09N 29°42' W 095°03'0 0.0
2017-Sep-21 10:45N 29°42' W 095°03'0 0.0
2017-Sep-21 10:30N 29°42' W 095°03'0 0.0
2017-Sep-21 09:55N 29°42' W 095°03'0 0.0
2017-Sep-21 09:30N 29°42' W 095°03'0 0.0
2017-Sep-21 09:00N 29°42' W 095°03'0 0.0
2017-Sep-21 08:26N 29°42' W 095°03'0 0.0
2017-Sep-21 07:58N 29°42' W 095°03'0 0.0
2017-Sep-21 06:41N 29°42' W 095°03'0 0.0
2017-Sep-21 06:24N 29°42' W 095°03'0 0.0
2017-Sep-21 06:00N 29°42' W 095°03'0 0.0
2017-Sep-21 05:30N 29°42' W 095°03'0 0.0
2017-Sep-21 05:01N 29°42' W 095°03'0 0.0
2017-Sep-21 04:26N 29°42' W 095°03'0 0.0
2017-Sep-21 04:00N 29°42' W 095°03'0 0.0
2017-Sep-21 03:28N 29°42' W 095°03'0 0.0
2017-Sep-21 03:00N 29°42' W 095°03'0 0.0
2017-Sep-21 02:16N 29°42' W 095°03'0 0.0
2017-Sep-21 01:53N 29°42' W 095°03'0 0.0
2017-Sep-21 00:49N 29°42' W 095°03'0 0.0
2017-Sep-21 00:17N 29°42' W 095°03'0 0.0
2017-Sep-20 23:36N 29°42' W 095°03'0 0.0
2017-Sep-20 22:31N 29°42' W 095°03'0 0.0
2017-Sep-20 22:23N 29°42' W 095°03'0 0.0
2017-Sep-20 21:58N 29°42' W 095°03'0 0.0
2017-Sep-20 21:28N 29°42' W 095°03'0 0.0
2017-Sep-20 20:57N 29°42' W 095°03'0 0.1
2017-Sep-20 20:31N 29°42' W 095°03'2 3.1
2017-Sep-20 19:59N 29°44' W 095°02'2 2.5
2017-Sep-20 19:22N 29°42' W 095°01'1 3.7
2017-Sep-20 18:59N 29°42' W 095°03'0 0.0
2017-Sep-20 18:06N 29°42' W 095°03'0 0.0
2017-Sep-20 18:01N 29°42' W 095°03'2 2.2
2017-Sep-20 17:19N 29°44' W 095°03'0 0.0
2017-Sep-20 16:58N 29°44' W 095°03'0 0.2
2017-Sep-20 16:30N 29°44' W 095°03'2 3.7
2017-Sep-20 15:58N 29°43' W 095°01'1 2.8
2017-Sep-20 15:28N 29°42' W 095°03'0 0.1
2017-Sep-20 14:59N 29°42' W 095°03'0 0.0
2017-Sep-20 13:53N 29°42' W 095°03'0 0.0
2017-Sep-20 13:25N 29°42' W 095°03'0 0.0
2017-Sep-20 13:00N 29°42' W 095°03'0 0.0
2017-Sep-20 12:29N 29°42' W 095°03'0 0.0
2017-Sep-20 12:01N 29°42' W 095°03'0 0.0
2017-Sep-20 11:29N 29°42' W 095°03'0 0.0
2017-Sep-20 10:50N 29°42' W 095°03'0 0.0
2017-Sep-20 10:30N 29°42' W 095°03'0 0.0
2017-Sep-20 10:00N 29°42' W 095°03'0 0.0
2017-Sep-20 09:25N 29°42' W 095°03'0 0.0
2017-Sep-20 09:00N 29°42' W 095°03'0 0.0
2017-Sep-20 08:29N 29°42' W 095°03'0 0.0
2017-Sep-20 07:57N 29°42' W 095°03'0 0.0
2017-Sep-20 07:28N 29°42' W 095°03'0 0.0
2017-Sep-20 06:58N 29°42' W 095°03'0 0.0
2017-Sep-20 06:28N 29°42' W 095°03'0 0.0
2017-Sep-20 06:00N 29°42' W 095°03'0 0.0
2017-Sep-20 05:30N 29°42' W 095°03'0 0.0
2017-Sep-20 04:55N 29°42' W 095°03'0 0.0
2017-Sep-20 04:27N 29°42' W 095°03'0 0.0
2017-Sep-20 03:59N 29°42' W 095°03'0 0.0
2017-Sep-20 03:27N 29°42' W 095°03'0 0.0
2017-Sep-20 02:59N 29°42' W 095°03'0 0.0
2017-Sep-20 02:26N 29°42' W 095°03'0 0.0
2017-Sep-20 01:59N 29°42' W 095°03'0 0.0
2017-Sep-20 01:30N 29°42' W 095°03'0 0.0
2017-Sep-20 00:55N 29°42' W 095°03'0 0.0
2017-Sep-20 00:26N 29°42' W 095°03'0 0.0
2017-Sep-19 23:59N 29°42' W 095°03'0 0.0
2017-Sep-19 23:30N 29°42' W 095°03'0 0.2
2017-Sep-19 23:01N 29°42' W 095°03'0 0.1
2017-Sep-19 22:31N 29°42' W 095°03'0 0.0
2017-Sep-19 22:00N 29°42' W 095°03'0 0.0
2017-Sep-19 21:29N 29°42' W 095°03'0 0.0
2017-Sep-19 21:01N 29°42' W 095°03'0 0.0
2017-Sep-19 20:31N 29°42' W 095°03'0 0.0
2017-Sep-19 20:01N 29°42' W 095°03'0 0.0
2017-Sep-19 19:30N 29°42' W 095°03'0 0.0
2017-Sep-19 19:00N 29°42' W 095°03'0 0.0
2017-Sep-19 18:31N 29°42' W 095°03'0 0.0
2017-Sep-19 18:00N 29°42' W 095°03'0 0.0
2017-Sep-19 17:22N 29°42' W 095°03'0 0.0
2017-Sep-19 16:58N 29°42' W 095°03'0 0.0
2017-Sep-19 16:30N 29°42' W 095°03'0 0.0
2017-Sep-19 16:00N 29°42' W 095°03'0 0.0
2017-Sep-19 15:30N 29°42' W 095°03'0 0.0
2017-Sep-19 14:59N 29°42' W 095°03'0 0.0
2017-Sep-19 14:30N 29°42' W 095°03'0 0.0
2017-Sep-19 14:00N 29°42' W 095°03'0 0.0
2017-Sep-19 13:31N 29°42' W 095°03'0 0.0
2017-Sep-19 13:01N 29°42' W 095°03'0 0.0
2017-Sep-19 12:31N 29°42' W 095°03'0 0.0
2017-Sep-19 12:00N 29°42' W 095°03'0 0.0
2017-Sep-19 11:30N 29°42' W 095°03'0 0.0
2017-Sep-19 11:00N 29°42' W 095°03'0 0.0
2017-Sep-19 10:31N 29°42' W 095°03'0 0.0
2017-Sep-19 10:00N 29°42' W 095°03'0 0.0
2017-Sep-19 09:27N 29°42' W 095°03'0 0.0
2017-Sep-19 09:00N 29°42' W 095°03'0 0.0
2017-Sep-19 08:30N 29°42' W 095°03'0 0.0
2017-Sep-19 07:59N 29°42' W 095°03'0 0.0
2017-Sep-19 07:31N 29°42' W 095°03'0 0.0
2017-Sep-19 07:00N 29°42' W 095°03'0 0.0
2017-Sep-19 06:30N 29°42' W 095°03'0 0.0
2017-Sep-19 06:01N 29°42' W 095°03'0 0.0
2017-Sep-19 05:29N 29°42' W 095°03'0 0.0
2017-Sep-19 05:00N 29°42' W 095°03'0 0.0
2017-Sep-19 04:30N 29°42' W 095°03'0 0.0
2017-Sep-19 04:00N 29°42' W 095°03'0 0.0
2017-Sep-19 03:29N 29°42' W 095°03'0 0.0
2017-Sep-19 03:00N 29°42' W 095°03'0 0.0
2017-Sep-19 02:30N 29°42' W 095°03'0 0.0
2017-Sep-19 01:58N 29°42' W 095°03'0 0.0
2017-Sep-19 01:29N 29°42' W 095°03'0 0.0
2017-Sep-19 01:00N 29°42' W 095°03'0 0.0
2017-Sep-19 00:30N 29°42' W 095°03'0 0.0
2017-Sep-19 00:00N 29°42' W 095°03'0 0.0
2017-Sep-18 23:30N 29°42' W 095°03'0 0.0
2017-Sep-18 23:01N 29°42' W 095°03'0 0.0
2017-Sep-18 22:31N 29°42' W 095°03'0 0.0
2017-Sep-18 22:01N 29°42' W 095°03'0 0.0
2017-Sep-18 21:30N 29°42' W 095°03'0 0.0
2017-Sep-18 21:00N 29°42' W 095°03'0 0.0
2017-Sep-18 20:30N 29°42' W 095°03'0 0.0
2017-Sep-18 20:01N 29°42' W 095°03'0 0.0
2017-Sep-18 19:31N 29°42' W 095°03'0 0.0
2017-Sep-18 19:00N 29°42' W 095°03'0 0.0
2017-Sep-18 18:30N 29°42' W 095°03'0 0.0
2017-Sep-18 18:00N 29°42' W 095°03'0 0.0
2017-Sep-18 17:29N 29°42' W 095°03'0 0.0
2017-Sep-18 17:01N 29°42' W 095°03'0 0.0
2017-Sep-18 16:31N 29°42' W 095°03'0 0.0
2017-Sep-18 16:00N 29°42' W 095°03'0 0.0
2017-Sep-18 15:31N 29°42' W 095°03'0 0.0
2017-Sep-18 15:01N 29°42' W 095°03'0 0.0
2017-Sep-18 14:31N 29°42' W 095°03'0 0.0
2017-Sep-18 14:01N 29°42' W 095°03'0 0.0
2017-Sep-18 13:30N 29°42' W 095°03'0 0.0
2017-Sep-18 13:00N 29°42' W 095°03'0 0.0
2017-Sep-18 12:31N 29°42' W 095°03'0 0.0
2017-Sep-18 12:01N 29°42' W 095°03'0 0.0
2017-Sep-18 11:27N 29°42' W 095°03'0 0.0
2017-Sep-18 10:58N 29°42' W 095°03'0 0.0
2017-Sep-18 10:30N 29°42' W 095°03'0 0.0
2017-Sep-18 10:00N 29°42' W 095°03'0 0.0
2017-Sep-18 09:31N 29°42' W 095°03'0 0.0
2017-Sep-18 09:00N 29°42' W 095°03'0 0.0
2017-Sep-18 08:30N 29°42' W 095°03'0 0.0
2017-Sep-18 08:00N 29°42' W 095°03'0 0.0
2017-Sep-18 07:30N 29°42' W 095°03'0 0.0
2017-Sep-18 07:00N 29°42' W 095°03'0 0.0
2017-Sep-18 06:30N 29°42' W 095°03'0 0.0
2017-Sep-18 06:00N 29°42' W 095°03'0 0.0
2017-Sep-18 05:30N 29°42' W 095°03'0 0.0
2017-Sep-18 05:00N 29°42' W 095°03'0 0.0
2017-Sep-18 04:30N 29°42' W 095°03'0 0.0
2017-Sep-18 04:00N 29°42' W 095°03'0 0.0
2017-Sep-18 03:30N 29°42' W 095°03'0 0.0
2017-Sep-18 03:00N 29°42' W 095°03'0 0.0
2017-Sep-18 02:31N 29°42' W 095°03'0 0.0
2017-Sep-18 02:01N 29°42' W 095°03'0 0.0
2017-Sep-18 01:31N 29°42' W 095°03'0 0.0
2017-Sep-18 01:01N 29°42' W 095°03'0 0.0
2017-Sep-18 00:31N 29°42' W 095°03'0 0.0
2017-Sep-18 00:00N 29°42' W 095°03'0 0.0
2017-Sep-17 23:31N 29°42' W 095°03'0 0.0
2017-Sep-17 23:00N 29°42' W 095°03'0 0.0
2017-Sep-17 22:31N 29°42' W 095°03'0 0.0
2017-Sep-17 22:01N 29°42' W 095°03'0 0.0
2017-Sep-17 21:31N 29°42' W 095°03'0 0.0
2017-Sep-17 21:01N 29°42' W 095°03'0 0.0
2017-Sep-17 20:31N 29°42' W 095°03'0 0.0
2017-Sep-17 20:00N 29°42' W 095°03'0 0.0
2017-Sep-17 19:31N 29°42' W 095°03'0 0.0
2017-Sep-17 19:00N 29°42' W 095°03'0 0.0
2017-Sep-17 18:30N 29°42' W 095°03'0 0.0
2017-Sep-17 18:01N 29°42' W 095°03'0 0.0
2017-Sep-17 17:30N 29°42' W 095°03'1 2.6
2017-Sep-17 17:00N 29°43' W 095°01'3 6.0
2017-Sep-17 16:30N 29°45' W 095°04'2 0.7
2017-Sep-17 14:00N 29°46' W 095°06'2 0.8
2017-Sep-17 11:55N 29°45' W 095°04'1 2.7
2017-Sep-17 11:31N 29°44' W 095°03'0 0.0
2017-Sep-17 11:00N 29°44' W 095°03'0 0.0
2017-Sep-17 10:28N 29°44' W 095°03'2 3.5
2017-Sep-17 09:55N 29°42' W 095°02'1 2.0
2017-Sep-17 09:30N 29°42' W 095°03'0 0.0
2017-Sep-17 09:00N 29°42' W 095°03'0 0.0
2017-Sep-17 08:28N 29°42' W 095°03'0 0.0
2017-Sep-17 08:00N 29°42' W 095°03'0 0.0
2017-Sep-17 07:29N 29°42' W 095°03'0 0.0
2017-Sep-17 07:00N 29°42' W 095°03'0 0.0
2017-Sep-17 06:26N 29°42' W 095°03'0 0.0
2017-Sep-17 05:59N 29°42' W 095°03'0 0.0
2017-Sep-17 05:30N 29°42' W 095°03'0 0.0
2017-Sep-17 05:01N 29°42' W 095°03'0 0.0
2017-Sep-17 04:14N 29°42' W 095°03'0 0.0
2017-Sep-17 04:00N 29°42' W 095°03'0 0.0
2017-Sep-17 03:26N 29°42' W 095°03'0 0.0
2017-Sep-17 03:00N 29°42' W 095°03'0 0.0
2017-Sep-17 02:30N 29°42' W 095°03'0 0.0
2017-Sep-17 02:00N 29°42' W 095°03'0 0.0
2017-Sep-17 01:30N 29°42' W 095°03'0 0.0
2017-Sep-17 01:00N 29°42' W 095°03'0 0.0
2017-Sep-17 00:29N 29°42' W 095°03'0 0.0
2017-Sep-17 00:00N 29°42' W 095°03'0 0.0
2017-Sep-16 23:30N 29°42' W 095°03'0 0.0
2017-Sep-16 22:59N 29°42' W 095°03'0 0.0
2017-Sep-16 22:30N 29°42' W 095°03'0 0.0
2017-Sep-16 22:00N 29°42' W 095°03'0 0.0
2017-Sep-16 21:30N 29°42' W 095°03'0 0.0
2017-Sep-16 21:00N 29°42' W 095°03'0 0.0
2017-Sep-16 20:30N 29°42' W 095°03'0 0.0
2017-Sep-16 20:01N 29°42' W 095°03'0 0.0
2017-Sep-16 19:31N 29°42' W 095°03'0 0.0
2017-Sep-16 19:00N 29°42' W 095°03'0 0.0
2017-Sep-16 18:31N 29°42' W 095°03'0 0.0
2017-Sep-16 18:01N 29°42' W 095°03'0 0.0
2017-Sep-16 17:29N 29°42' W 095°03'0 0.0
2017-Sep-16 17:01N 29°42' W 095°03'0 0.0
2017-Sep-16 16:31N 29°42' W 095°03'  
Track history (hours):
 
Tides and Currents Weather Stations Pressure Air Temp Water Temp Dewpoint Dewpoint Depression Visibility Wind Speed Wind Dir Waves Ship Positions

Matthew James

Owner: LeBeouf Bros. Towing, LLC, Houma, LA. More information available from US FCC via Universal Licensing System and Coast Guard Vessel Documentation Center.

Last reported at 2017-Sep-26 16:23 UTC. Time now 2017-Sep-26 16:38 UTC.
Position N 29°42' W 095°03'.

Length 24 m; draft 3 m.

Type: Tug. MMSI: 367145380.

Date/timePositionNaut miles runAvg speedWind from/ knotsBaromVisibWave heightAir tempDewpointWater temp
2017-Sep-26 16:23N 29°42' W 095°03'0 0.0
2017-Sep-26 15:40N 29°42' W 095°03'0 0.0
2017-Sep-26 15:27N 29°42' W 095°03'0 0.0
2017-Sep-26 14:57N 29°42' W 095°03'0 0.0
2017-Sep-26 14:22N 29°42' W 095°03'0 0.0
2017-Sep-26 14:01N 29°42' W 095°03'0 0.0
2017-Sep-26 13:24N 29°42' W 095°03'0 0.0
2017-Sep-26 12:58N 29°42' W 095°03'0 0.0
2017-Sep-26 12:29N 29°42' W 095°03'0 0.0
2017-Sep-26 09:49N 29°42' W 095°03'0 0.0
2017-Sep-26 09:27N 29°42' W 095°03'0 0.0
2017-Sep-26 08:49N 29°42' W 095°03'0 0.0
2017-Sep-26 08:29N 29°42' W 095°03'0 0.0
2017-Sep-26 07:52N 29°42' W 095°03'0 0.0
2017-Sep-26 07:31N 29°42' W 095°03'0 0.0
2017-Sep-26 07:00N 29°42' W 095°03'0 0.0
2017-Sep-26 06:31N 29°42' W 095°03'0 0.0
2017-Sep-26 05:57N 29°42' W 095°03'0 0.0
2017-Sep-26 05:28N 29°42' W 095°03'0 0.0
2017-Sep-26 05:00N 29°42' W 095°03'0 0.0
2017-Sep-26 04:28N 29°42' W 095°03'0 0.0
2017-Sep-26 04:00N 29°42' W 095°03'0 0.0
2017-Sep-26 03:17N 29°42' W 095°03'0 0.0
2017-Sep-26 03:00N 29°42' W 095°03'0 0.0
2017-Sep-26 02:29N 29°42' W 095°03'0 0.0
2017-Sep-26 01:26N 29°42' W 095°03'0 0.0
2017-Sep-26 00:45N 29°42' W 095°03'0 0.0
2017-Sep-26 00:30N 29°42' W 095°03'0 0.0
2017-Sep-25 22:43N 29°42' W 095°03'0 0.0
2017-Sep-25 22:28N 29°42' W 095°03'0 0.0
2017-Sep-25 20:43N 29°42' W 095°03'0 0.0
2017-Sep-25 18:12N 29°42' W 095°03'0 0.1
2017-Sep-25 17:58N 29°42' W 095°03'1 3.0
2017-Sep-25 17:30N 29°43' W 095°01'3 6.2
2017-Sep-25 17:01N 29°45' W 095°04'4 5.4
2017-Sep-25 16:15N 29°44' W 095°09'3 0.5
2017-Sep-25 09:32N 29°44' W 095°12'0 0.0
2017-Sep-25 09:27N 29°44' W 095°12'0 0.0
2017-Sep-25 09:00N 29°44' W 095°12'0 0.0
2017-Sep-25 08:29N 29°44' W 095°12'0 0.0
2017-Sep-24 17:39N 29°44' W 095°12'2 5.3
2017-Sep-24 17:13N 29°44' W 095°09'3 6.1
2017-Sep-24 16:48N 29°45' W 095°06'2 5.0
2017-Sep-24 16:19N 29°45' W 095°04'2 6.5
2017-Sep-24 16:00N 29°44' W 095°02'2 3.0
2017-Sep-24 15:30N 29°42' W 095°02'1 1.2
2017-Sep-24 15:00N 29°42' W 095°03'0 0.2
2017-Sep-24 14:31N 29°42' W 095°03'0 0.0
2017-Sep-24 13:59N 29°42' W 095°03'0 0.0
2017-Sep-24 13:30N 29°42' W 095°03'0 0.0
2017-Sep-24 12:58N 29°42' W 095°03'0 0.0
2017-Sep-24 12:18N 29°42' W 095°03'0 0.0
2017-Sep-24 11:06N 29°42' W 095°03'0 0.0
2017-Sep-24 10:51N 29°42' W 095°03'0 0.0
2017-Sep-24 10:20N 29°42' W 095°03'0 0.0
2017-Sep-24 09:58N 29°42' W 095°03'0 0.0
2017-Sep-24 09:28N 29°42' W 095°03'0 0.0
2017-Sep-24 08:59N 29°42' W 095°03'0 0.0
2017-Sep-24 08:28N 29°42' W 095°03'0 0.0
2017-Sep-24 06:07N 29°42' W 095°03'0 0.0
2017-Sep-24 05:57N 29°42' W 095°03'0 0.0
2017-Sep-24 05:30N 29°42' W 095°03'0 0.0
2017-Sep-24 05:00N 29°42' W 095°03'0 0.0
2017-Sep-24 04:28N 29°42' W 095°03'0 0.0
2017-Sep-24 03:56N 29°42' W 095°03'0 0.0
2017-Sep-24 03:25N 29°42' W 095°03'0 0.0
2017-Sep-24 03:00N 29°42' W 095°03'0 0.0
2017-Sep-24 02:21N 29°42' W 095°03'0 0.0
2017-Sep-24 01:50N 29°42' W 095°03'0 0.0
2017-Sep-24 01:28N 29°42' W 095°03'0 0.0
2017-Sep-24 00:55N 29°42' W 095°03'0 0.0
2017-Sep-24 00:24N 29°42' W 095°03'0 0.0
2017-Sep-23 23:06N 29°42' W 095°03'0 0.0
2017-Sep-23 23:00N 29°42' W 095°03'0 0.0
2017-Sep-23 22:28N 29°42' W 095°03'0 0.0
2017-Sep-23 22:00N 29°42' W 095°03'0 0.0
2017-Sep-23 21:30N 29°42' W 095°03'0 0.0
2017-Sep-23 20:59N 29°42' W 095°03'0 0.0
2017-Sep-23 19:37N 29°42' W 095°03'0 0.0
2017-Sep-22 02:00N 29°42' W 095°03'0 0.0
2017-Sep-22 01:27N 29°42' W 095°03'0 0.0
2017-Sep-22 01:00N 29°42' W 095°03'0 0.0
2017-Sep-22 00:31N 29°42' W 095°03'0 0.0
2017-Sep-21 23:58N 29°42' W 095°03'0 0.0
2017-Sep-21 23:30N 29°42' W 095°03'0 0.0
2017-Sep-21 23:01N 29°42' W 095°03'0 0.0
2017-Sep-21 22:28N 29°42' W 095°03'0 0.0
2017-Sep-21 22:00N 29°42' W 095°03'0 0.0
2017-Sep-21 21:31N 29°42' W 095°03'0 0.1
2017-Sep-21 21:01N 29°42' W 095°03'0 0.0
2017-Sep-21 20:31N 29°42' W 095°03'0 0.0
2017-Sep-21 20:00N 29°42' W 095°03'0 0.1
2017-Sep-21 19:31N 29°42' W 095°03'0 0.2
2017-Sep-21 18:58N 29°42' W 095°03'0 0.0
2017-Sep-21 18:25N 29°42' W 095°03'0 0.0
2017-Sep-21 17:56N 29°42' W 095°03'0 0.0
2017-Sep-21 17:18N 29°42' W 095°03'0 0.0
2017-Sep-21 16:57N 29°42' W 095°03'0 0.0
2017-Sep-21 16:30N 29°42' W 095°03'0 0.0
2017-Sep-21 16:00N 29°42' W 095°03'0 0.0
2017-Sep-21 15:23N 29°42' W 095°03'0 0.0
2017-Sep-21 14:58N 29°42' W 095°03'0 0.0
2017-Sep-21 14:12N 29°42' W 095°03'0 0.0
2017-Sep-21 13:49N 29°42' W 095°03'0 0.0
2017-Sep-21 11:09N 29°42' W 095°03'0 0.0
2017-Sep-21 10:45N 29°42' W 095°03'0 0.0
2017-Sep-21 10:30N 29°42' W 095°03'0 0.0
2017-Sep-21 09:55N 29°42' W 095°03'0 0.0
2017-Sep-21 09:30N 29°42' W 095°03'0 0.0
2017-Sep-21 09:00N 29°42' W 095°03'0 0.0
2017-Sep-21 08:26N 29°42' W 095°03'0 0.0
2017-Sep-21 07:58N 29°42' W 095°03'0 0.0
2017-Sep-21 06:41N 29°42' W 095°03'0 0.0
2017-Sep-21 06:24N 29°42' W 095°03'0 0.0
2017-Sep-21 06:00N 29°42' W 095°03'0 0.0
2017-Sep-21 05:30N 29°42' W 095°03'0 0.0
2017-Sep-21 05:01N 29°42' W 095°03'0 0.0
2017-Sep-21 04:26N 29°42' W 095°03'0 0.0
2017-Sep-21 04:00N 29°42' W 095°03'0 0.0
2017-Sep-21 03:28N 29°42' W 095°03'0 0.0
2017-Sep-21 03:00N 29°42' W 095°03'0 0.0
2017-Sep-21 02:16N 29°42' W 095°03'0 0.0
2017-Sep-21 01:53N 29°42' W 095°03'0 0.0
2017-Sep-21 00:49N 29°42' W 095°03'0 0.0
2017-Sep-21 00:17N 29°42' W 095°03'0 0.0
2017-Sep-20 23:36N 29°42' W 095°03'0 0.0
2017-Sep-20 22:31N 29°42' W 095°03'0 0.0
2017-Sep-20 22:23N 29°42' W 095°03'0 0.0
2017-Sep-20 21:58N 29°42' W 095°03'0 0.0
2017-Sep-20 21:28N 29°42' W 095°03'0 0.0
2017-Sep-20 20:57N 29°42' W 095°03'0 0.1
2017-Sep-20 20:31N 29°42' W 095°03'2 3.1
2017-Sep-20 19:59N 29°44' W 095°02'2 2.5
2017-Sep-20 19:22N 29°42' W 095°01'1 3.7
2017-Sep-20 18:59N 29°42' W 095°03'0 0.0
2017-Sep-20 18:06N 29°42' W 095°03'0 0.0
2017-Sep-20 18:01N 29°42' W 095°03'2 2.2
2017-Sep-20 17:19N 29°44' W 095°03'0 0.0
2017-Sep-20 16:58N 29°44' W 095°03'0 0.2
2017-Sep-20 16:30N 29°44' W 095°03'2 3.7
2017-Sep-20 15:58N 29°43' W 095°01'1 2.8
2017-Sep-20 15:28N 29°42' W 095°03'0 0.1
2017-Sep-20 14:59N 29°42' W 095°03'0 0.0
2017-Sep-20 13:53N 29°42' W 095°03'0 0.0
2017-Sep-20 13:25N 29°42' W 095°03'0 0.0
2017-Sep-20 13:00N 29°42' W 095°03'0 0.0
2017-Sep-20 12:29N 29°42' W 095°03'0 0.0
2017-Sep-20 12:01N 29°42' W 095°03'0 0.0
2017-Sep-20 11:29N 29°42' W 095°03'0 0.0
2017-Sep-20 10:50N 29°42' W 095°03'0 0.0
2017-Sep-20 10:30N 29°42' W 095°03'0 0.0
2017-Sep-20 10:00N 29°42' W 095°03'0 0.0
2017-Sep-20 09:25N 29°42' W 095°03'0 0.0
2017-Sep-20 09:00N 29°42' W 095°03'0 0.0
2017-Sep-20 08:29N 29°42' W 095°03'0 0.0
2017-Sep-20 07:57N 29°42' W 095°03'0 0.0
2017-Sep-20 07:28N 29°42' W 095°03'0 0.0
2017-Sep-20 06:58N 29°42' W 095°03'0 0.0
2017-Sep-20 06:28N 29°42' W 095°03'0 0.0
2017-Sep-20 06:00N 29°42' W 095°03'0 0.0
2017-Sep-20 05:30N 29°42' W 095°03'0 0.0
2017-Sep-20 04:55N 29°42' W 095°03'0 0.0
2017-Sep-20 04:27N 29°42' W 095°03'0 0.0
2017-Sep-20 03:59N 29°42' W 095°03'0 0.0
2017-Sep-20 03:27N 29°42' W 095°03'0 0.0
2017-Sep-20 02:59N 29°42' W 095°03'0 0.0
2017-Sep-20 02:26N 29°42' W 095°03'0 0.0
2017-Sep-20 01:59N 29°42' W 095°03'0 0.0
2017-Sep-20 01:30N 29°42' W 095°03'0 0.0
2017-Sep-20 00:55N 29°42' W 095°03'0 0.0
2017-Sep-20 00:26N 29°42' W 095°03'0 0.0
2017-Sep-19 23:59N 29°42' W 095°03'0 0.0
2017-Sep-19 23:30N 29°42' W 095°03'0 0.2
2017-Sep-19 23:01N 29°42' W 095°03'0 0.1
2017-Sep-19 22:31N 29°42' W 095°03'0 0.0
2017-Sep-19 22:00N 29°42' W 095°03'0 0.0
2017-Sep-19 21:29N 29°42' W 095°03'0 0.0
2017-Sep-19 21:01N 29°42' W 095°03'0 0.0
2017-Sep-19 20:31N 29°42' W 095°03'0 0.0
2017-Sep-19 20:01N 29°42' W 095°03'0 0.0
2017-Sep-19 19:30N 29°42' W 095°03'0 0.0
2017-Sep-19 19:00N 29°42' W 095°03'0 0.0
2017-Sep-19 18:31N 29°42' W 095°03'0 0.0
2017-Sep-19 18:00N 29°42' W 095°03'0 0.0
2017-Sep-19 17:22N 29°42' W 095°03'0 0.0
2017-Sep-19 16:58N 29°42' W 095°03'0 0.0
2017-Sep-19 16:30N 29°42' W 095°03'0 0.0
2017-Sep-19 16:00N 29°42' W 095°03'0 0.0
2017-Sep-19 15:30N 29°42' W 095°03'0 0.0
2017-Sep-19 14:59N 29°42' W 095°03'0 0.0
2017-Sep-19 14:30N 29°42' W 095°03'0 0.0
2017-Sep-19 14:00N 29°42' W 095°03'0 0.0
2017-Sep-19 13:31N 29°42' W 095°03'0 0.0
2017-Sep-19 13:01N 29°42' W 095°03'0 0.0
2017-Sep-19 12:31N 29°42' W 095°03'0 0.0
2017-Sep-19 12:00N 29°42' W 095°03'0 0.0
2017-Sep-19 11:30N 29°42' W 095°03'0 0.0
2017-Sep-19 11:00N 29°42' W 095°03'0 0.0
2017-Sep-19 10:31N 29°42' W 095°03'0 0.0
2017-Sep-19 10:00N 29°42' W 095°03'0 0.0
2017-Sep-19 09:27N 29°42' W 095°03'0 0.0
2017-Sep-19 09:00N 29°42' W 095°03'0 0.0
2017-Sep-19 08:30N 29°42' W 095°03'0 0.0
2017-Sep-19 07:59N 29°42' W 095°03'0 0.0
2017-Sep-19 07:31N 29°42' W 095°03'0 0.0
2017-Sep-19 07:00N 29°42' W 095°03'0 0.0
2017-Sep-19 06:30N 29°42' W 095°03'0 0.0
2017-Sep-19 06:01N 29°42' W 095°03'0 0.0
2017-Sep-19 05:29N 29°42' W 095°03'0 0.0
2017-Sep-19 05:00N 29°42' W 095°03'0 0.0
2017-Sep-19 04:30N 29°42' W 095°03'0 0.0
2017-Sep-19 04:00N 29°42' W 095°03'0 0.0
2017-Sep-19 03:29N 29°42' W 095°03'0 0.0
2017-Sep-19 03:00N 29°42' W 095°03'0 0.0
2017-Sep-19 02:30N 29°42' W 095°03'0 0.0
2017-Sep-19 01:58N 29°42' W 095°03'0 0.0
2017-Sep-19 01:29N 29°42' W 095°03'0 0.0
2017-Sep-19 01:00N 29°42' W 095°03'0 0.0
2017-Sep-19 00:30N 29°42' W 095°03'0 0.0
2017-Sep-19 00:00N 29°42' W 095°03'0 0.0
2017-Sep-18 23:30N 29°42' W 095°03'0 0.0
2017-Sep-18 23:01N 29°42' W 095°03'0 0.0
2017-Sep-18 22:31N 29°42' W 095°03'0 0.0
2017-Sep-18 22:01N 29°42' W 095°03'0 0.0
2017-Sep-18 21:30N 29°42' W 095°03'0 0.0
2017-Sep-18 21:00N 29°42' W 095°03'0 0.0
2017-Sep-18 20:30N 29°42' W 095°03'0 0.0
2017-Sep-18 20:01N 29°42' W 095°03'0 0.0
2017-Sep-18 19:31N 29°42' W 095°03'0 0.0
2017-Sep-18 19:00N 29°42' W 095°03'0 0.0
2017-Sep-18 18:30N 29°42' W 095°03'0 0.0
2017-Sep-18 18:00N 29°42' W 095°03'0 0.0
2017-Sep-18 17:29N 29°42' W 095°03'0 0.0
2017-Sep-18 17:01N 29°42' W 095°03'0 0.0
2017-Sep-18 16:31N 29°42' W 095°03'0 0.0
2017-Sep-18 16:00N 29°42' W 095°03'0 0.0
2017-Sep-18 15:31N 29°42' W 095°03'0 0.0
2017-Sep-18 15:01N 29°42' W 095°03'0 0.0
2017-Sep-18 14:31N 29°42' W 095°03'0 0.0
2017-Sep-18 14:01N 29°42' W 095°03'0 0.0
2017-Sep-18 13:30N 29°42' W 095°03'0 0.0
2017-Sep-18 13:00N 29°42' W 095°03'0 0.0
2017-Sep-18 12:31N 29°42' W 095°03'0 0.0
2017-Sep-18 12:01N 29°42' W 095°03'0 0.0
2017-Sep-18 11:27N 29°42' W 095°03'0 0.0
2017-Sep-18 10:58N 29°42' W 095°03'0 0.0
2017-Sep-18 10:30N 29°42' W 095°03'0 0.0
2017-Sep-18 10:00N 29°42' W 095°03'0 0.0
2017-Sep-18 09:31N 29°42' W 095°03'0 0.0
2017-Sep-18 09:00N 29°42' W 095°03'0 0.0
2017-Sep-18 08:30N 29°42' W 095°03'0 0.0
2017-Sep-18 08:00N 29°42' W 095°03'0 0.0
2017-Sep-18 07:30N 29°42' W 095°03'0 0.0
2017-Sep-18 07:00N 29°42' W 095°03'0 0.0
2017-Sep-18 06:30N 29°42' W 095°03'0 0.0
2017-Sep-18 06:00N 29°42' W 095°03'0 0.0
2017-Sep-18 05:30N 29°42' W 095°03'0 0.0
2017-Sep-18 05:00N 29°42' W 095°03'0 0.0
2017-Sep-18 04:30N 29°42' W 095°03'0 0.0
2017-Sep-18 04:00N 29°42' W 095°03'0 0.0
2017-Sep-18 03:30N 29°42' W 095°03'0 0.0
2017-Sep-18 03:00N 29°42' W 095°03'0 0.0
2017-Sep-18 02:31N 29°42' W 095°03'0 0.0
2017-Sep-18 02:01N 29°42' W 095°03'0 0.0
2017-Sep-18 01:31N 29°42' W 095°03'0 0.0
2017-Sep-18 01:01N 29°42' W 095°03'0 0.0
2017-Sep-18 00:31N 29°42' W 095°03'0 0.0
2017-Sep-18 00:00N 29°42' W 095°03'0 0.0
2017-Sep-17 23:31N 29°42' W 095°03'0 0.0
2017-Sep-17 23:00N 29°42' W 095°03'0 0.0
2017-Sep-17 22:31N 29°42' W 095°03'0 0.0
2017-Sep-17 22:01N 29°42' W 095°03'0 0.0
2017-Sep-17 21:31N 29°42' W 095°03'0 0.0
2017-Sep-17 21:01N 29°42' W 095°03'0 0.0
2017-Sep-17 20:31N 29°42' W 095°03'0 0.0
2017-Sep-17 20:00N 29°42' W 095°03'0 0.0
2017-Sep-17 19:31N 29°42' W 095°03'0 0.0
2017-Sep-17 19:00N 29°42' W 095°03'0 0.0
2017-Sep-17 18:30N 29°42' W 095°03'0 0.0
2017-Sep-17 18:01N 29°42' W 095°03'0 0.0
2017-Sep-17 17:30N 29°42' W 095°03'1 2.6
2017-Sep-17 17:00N 29°43' W 095°01'3 6.0
2017-Sep-17 16:30N 29°45' W 095°04'2 0.7
2017-Sep-17 14:00N 29°46' W 095°06'2 0.8
2017-Sep-17 11:55N 29°45' W 095°04'1 2.7
2017-Sep-17 11:31N 29°44' W 095°03'0 0.0
2017-Sep-17 11:00N 29°44' W 095°03'0 0.0
2017-Sep-17 10:28N 29°44' W 095°03'2 3.5
2017-Sep-17 09:55N 29°42' W 095°02'1 2.0
2017-Sep-17 09:30N 29°42' W 095°03'0 0.0
2017-Sep-17 09:00N 29°42' W 095°03'0 0.0
2017-Sep-17 08:28N 29°42' W 095°03'0 0.0
2017-Sep-17 08:00N 29°42' W 095°03'0 0.0
2017-Sep-17 07:29N 29°42' W 095°03'0 0.0
2017-Sep-17 07:00N 29°42' W 095°03'0 0.0
2017-Sep-17 06:26N 29°42' W 095°03'0 0.0
2017-Sep-17 05:59N 29°42' W 095°03'0 0.0
2017-Sep-17 05:30N 29°42' W 095°03'0 0.0
2017-Sep-17 05:01N 29°42' W 095°03'0 0.0
2017-Sep-17 04:14N 29°42' W 095°03'0 0.0
2017-Sep-17 04:00N 29°42' W 095°03'0 0.0
2017-Sep-17 03:26N 29°42' W 095°03'0 0.0
2017-Sep-17 03:00N 29°42' W 095°03'0 0.0
2017-Sep-17 02:30N 29°42' W 095°03'0 0.0
2017-Sep-17 02:00N 29°42' W 095°03'0 0.0
2017-Sep-17 01:30N 29°42' W 095°03'0 0.0
2017-Sep-17 01:00N 29°42' W 095°03'0 0.0
2017-Sep-17 00:29N 29°42' W 095°03'0 0.0
2017-Sep-17 00:00N 29°42' W 095°03'0 0.0
2017-Sep-16 23:30N 29°42' W 095°03'0 0.0
2017-Sep-16 22:59N 29°42' W 095°03'0 0.0
2017-Sep-16 22:30N 29°42' W 095°03'0 0.0
2017-Sep-16 22:00N 29°42' W 095°03'0 0.0
2017-Sep-16 21:30N 29°42' W 095°03'0 0.0
2017-Sep-16 21:00N 29°42' W 095°03'0 0.0
2017-Sep-16 20:30N 29°42' W 095°03'0 0.0
2017-Sep-16 20:01N 29°42' W 095°03'0 0.0
2017-Sep-16 19:31N 29°42' W 095°03'0 0.0
2017-Sep-16 19:00N 29°42' W 095°03'0 0.0
2017-Sep-16 18:31N 29°42' W 095°03'0 0.0
2017-Sep-16 18:01N 29°42' W 095°03'0 0.0
2017-Sep-16 17:29N 29°42' W 095°03'0 0.0
2017-Sep-16 17:01N 29°42' W 095°03'0 0.0
2017-Sep-16 16:31N 29°42' W 095°03'  

Dump ship's entire track history